createdAt,value
2019-01-23T00:04:06.558Z,-2.40
2019-01-23T00:06:36.436Z,-2.50
2019-01-23T00:09:07.961Z,-2.50
2019-01-23T00:11:38.981Z,-2.50
2019-01-23T00:21:36.124Z,-2.50
2019-01-23T00:24:06.044Z,-2.50
2019-01-23T00:26:36.164Z,-2.50
2019-01-23T00:29:05.876Z,-2.50
2019-01-23T00:31:37.547Z,-2.50
2019-01-23T00:34:07.690Z,-2.50
2019-01-23T00:36:37.891Z,-1.80
2019-01-23T00:39:09.111Z,-2.50
2019-01-23T00:41:40.655Z,-2.50
2019-01-23T00:44:10.399Z,-2.50
2019-01-23T00:46:43.273Z,-2.50
2019-01-23T00:51:45.561Z,-2.50
2019-01-23T00:56:48.612Z,-2.50
2019-01-23T00:59:18.312Z,-2.50
2019-01-23T01:04:19.772Z,-2.50
2019-01-23T01:06:54.167Z,-2.50
2019-01-23T01:09:23.907Z,-2.60
2019-01-23T01:11:56.665Z,-2.50
2019-01-23T01:14:26.409Z,-2.50
2019-01-23T01:17:01.025Z,-2.50
2019-01-23T01:19:30.744Z,-1.60
2019-01-23T01:22:03.585Z,-2.60
2019-01-23T01:27:06.336Z,-2.40
2019-01-23T01:29:37.104Z,-2.40
2019-01-23T01:34:38.428Z,-3.50
2019-01-23T01:42:17.609Z,-2.30
2019-01-23T01:44:47.388Z,-2.40
2019-01-23T01:47:19.067Z,-2.30
2019-01-23T01:52:22.621Z,-2.40
2019-01-23T01:54:52.588Z,-2.40
2019-01-23T01:57:23.956Z,-2.40
2019-01-23T02:02:27.309Z,-2.30
2019-01-23T02:04:57.099Z,-2.30
2019-01-23T02:09:57.392Z,-2.20
2019-01-23T02:12:31.441Z,-2.20
2019-01-23T02:17:36.119Z,-2.20
2019-01-23T02:20:09.200Z,-2.20
2019-01-23T02:22:39.023Z,-2.20
2019-01-23T02:25:09.234Z,-2.20
2019-01-23T02:27:39.462Z,-1.10
2019-01-23T02:30:10.811Z,-2.30
2019-01-23T02:32:42.368Z,-1.20
2019-01-23T02:35:12.239Z,-2.30
2019-01-23T02:40:17.292Z,-2.30
2019-01-23T02:42:48.871Z,-2.30
2019-01-23T02:45:19.852Z,-2.30
2019-01-23T02:47:52.436Z,-2.30
2019-01-23T02:50:22.132Z,-2.30
2019-01-23T02:52:56.125Z,-1.80
2019-01-23T02:55:26.100Z,-2.30
2019-01-23T02:57:58.619Z,-2.30
2019-01-23T03:03:01.590Z,-2.30
2019-01-23T03:05:31.332Z,-2.20
2019-01-23T03:08:03.799Z,-2.20
2019-01-23T03:10:33.558Z,-2.20
2019-01-23T03:13:06.878Z,-2.30
2019-01-23T03:15:37.973Z,-2.20
2019-01-23T03:18:12.475Z,-2.30
2019-01-23T03:20:42.213Z,-2.20
2019-01-23T03:25:43.213Z,-2.30
2019-01-23T03:28:17.137Z,-2.30
2019-01-23T03:30:47.087Z,-2.30
2019-01-23T03:35:48.995Z,-2.10
2019-01-23T03:38:21.577Z,-2.30
2019-01-23T03:40:51.240Z,-2.30
2019-01-23T03:43:25.308Z,-2.30
2019-01-23T03:48:28.451Z,-2.30
2019-01-23T03:53:29.998Z,-2.30
2019-01-23T03:55:59.708Z,-2.30
2019-01-23T03:58:32.637Z,-2.30
2019-01-23T04:01:02.535Z,-2.30
2019-01-23T04:03:35.952Z,-2.30
2019-01-23T04:06:05.947Z,-2.30
2019-01-23T04:08:38.667Z,-2.40
2019-01-23T04:13:40.667Z,-2.40
2019-01-23T04:18:42.263Z,-2.50
2019-01-23T04:21:11.971Z,-2.60
2019-01-23T04:28:48.456Z,-2.60
2019-01-23T04:31:18.201Z,-2.60
2019-01-23T04:36:22.749Z,-2.70
2019-01-23T04:38:56.087Z,-2.70
2019-01-23T04:41:26.050Z,-2.70
2019-01-23T04:43:59.261Z,-1.50
2019-01-23T04:54:19.936Z,-2.60
2019-01-23T04:56:49.620Z,-2.60
2019-01-23T04:59:19.398Z,-2.60
2019-01-23T05:04:18.240Z,-3.60
2019-01-23T05:09:17.538Z,-2.70
2019-01-23T05:11:48.120Z,-2.70
2019-01-23T05:14:18.143Z,-2.60
2019-01-23T05:19:20.121Z,-2.60
2019-01-23T05:21:49.855Z,-2.60
2019-01-23T05:24:23.133Z,-2.60
2019-01-23T05:26:53.086Z,-2.60
2019-01-23T05:29:25.449Z,-2.60
2019-01-23T05:34:29.587Z,-2.70
2019-01-23T05:36:59.407Z,-2.80
2019-01-23T05:42:08.852Z,-2.70
2019-01-23T05:47:11.128Z,-2.70
2019-01-23T05:49:40.897Z,-2.60
2019-01-23T05:52:10.599Z,-2.60
2019-01-23T05:54:40.604Z,-2.60
2019-01-23T05:57:10.338Z,-2.60
2019-01-23T05:59:40.468Z,-1.70
2019-01-23T06:02:10.625Z,-2.50
2019-01-23T06:04:43.952Z,-2.50
2019-01-23T06:07:13.710Z,-2.40
2019-01-23T06:09:48.540Z,-2.40
2019-01-23T06:19:54.252Z,-2.20
2019-01-23T06:22:31.727Z,-0.60
2019-01-23T06:30:00.571Z,-2.40
2019-01-23T06:35:06.167Z,-2.80
2019-01-23T06:37:36.747Z,-2.40
2019-01-23T06:40:10.879Z,-2.30
2019-01-23T06:42:40.624Z,-2.40
2019-01-23T06:45:12.431Z,-1.10
2019-01-23T06:47:42.236Z,-2.40
2019-01-23T06:50:18.833Z,-2.40
2019-01-23T06:58:26.015Z,-1.30
2019-01-23T07:00:55.974Z,-2.20
2019-01-23T07:03:25.993Z,-2.20
2019-01-23T07:05:56.072Z,-2.20
2019-01-23T07:08:25.846Z,-1.10
2019-01-23T07:10:55.556Z,-2.30
2019-01-23T07:13:26.419Z,-2.20
2019-01-23T07:18:31.292Z,-2.30
2019-01-23T07:23:30.296Z,-1.10
2019-01-23T07:26:03.080Z,-2.30
2019-01-23T07:28:33.518Z,-2.60
2019-01-23T07:31:03.201Z,-2.40
2019-01-23T07:33:37.686Z,-2.40
2019-01-23T07:36:07.378Z,-2.50
2019-01-23T07:38:37.101Z,-2.50
2019-01-23T07:41:07.121Z,-2.50
2019-01-23T07:43:41.584Z,-2.60
2019-01-23T07:46:11.354Z,-2.60
2019-01-23T07:48:42.186Z,-2.60
2019-01-23T07:51:11.896Z,-2.60
2019-01-23T07:56:13.358Z,-2.50
2019-01-23T07:58:47.673Z,-2.50
2019-01-23T08:01:17.646Z,-2.40
2019-01-23T08:03:50.080Z,-2.40
2019-01-23T08:06:19.835Z,-2.40
2019-01-23T08:08:55.322Z,-2.40
2019-01-23T08:11:25.086Z,-2.30
2019-01-23T08:16:26.063Z,-2.20
2019-01-23T08:19:01.840Z,-1.40
2019-01-23T08:21:31.819Z,-2.20
2019-01-23T08:26:31.928Z,-2.10
2019-01-23T08:29:06.445Z,-2.10
2019-01-23T08:31:36.336Z,-2.00
2019-01-23T08:34:10.635Z,-2.00
2019-01-23T08:36:40.382Z,-2.10
2019-01-23T08:39:13.459Z,-2.00
2019-01-23T08:41:43.466Z,-1.90
2019-01-23T08:44:17.503Z,-2.00
2019-01-23T08:46:47.225Z,-2.00
2019-01-23T08:49:20.018Z,-1.90
2019-01-23T08:51:50.055Z,-1.10
2019-01-23T08:54:22.621Z,-3.10
2019-01-23T08:56:52.480Z,-1.90
2019-01-23T08:59:24.138Z,-1.90
2019-01-23T09:01:53.840Z,-1.90
2019-01-23T09:04:26.365Z,-1.80
2019-01-23T09:11:58.078Z,-1.70
2019-01-23T09:14:31.940Z,-1.60
2019-01-23T09:17:01.690Z,-1.60
2019-01-23T09:19:34.723Z,-0.40
2019-01-23T09:22:04.476Z,-1.40
2019-01-23T09:24:38.369Z,-1.30
2019-01-23T09:27:08.149Z,-1.30
2019-01-23T09:29:40.664Z,-1.50
2019-01-23T09:32:48.548Z,-1.40
2019-01-23T09:35:45.472Z,-1.50
2019-01-23T09:39:06.268Z,-1.40
2019-01-23T09:47:34.165Z,-1.40
2019-01-23T09:50:49.573Z,-1.40
2019-01-23T09:53:30.217Z,-1.30
2019-01-23T09:56:00.546Z,-1.20
2019-01-23T09:58:30.433Z,-1.10
2019-01-23T10:01:00.252Z,-1.10
2019-01-23T10:06:00.964Z,-1.20
2019-01-23T10:08:30.983Z,-1.30
2019-01-23T10:11:03.976Z,-1.10
2019-01-23T10:13:33.702Z,-0.80
2019-01-23T10:16:10.584Z,-0.60
2019-01-23T10:18:40.288Z,0.40
2019-01-23T10:21:11.002Z,-0.70
2019-01-23T10:23:41.042Z,-0.80
2019-01-23T10:26:14.253Z,-0.80
2019-01-23T10:28:43.957Z,-0.80
2019-01-23T10:31:17.047Z,-0.90
2019-01-23T10:33:46.786Z,-1.10
2019-01-23T10:36:19.120Z,-1.10
2019-01-23T10:41:21.801Z,-1.20
2019-01-23T10:43:51.670Z,-1.20
2019-01-23T10:46:33.775Z,-1.20
2019-01-23T10:49:03.615Z,-1.30
2019-01-23T10:51:33.436Z,-1.20
2019-01-23T10:54:05.935Z,-1.30
2019-01-23T10:59:07.335Z,-1.10
2019-01-23T11:01:37.660Z,-1.00
2019-01-23T11:04:07.610Z,-1.10
2019-01-23T11:06:37.657Z,-1.20
2019-01-23T11:11:40.822Z,-1.00
2019-01-23T11:14:10.570Z,-1.00
2019-01-23T11:16:40.299Z,-1.50
2019-01-23T11:19:10.052Z,-0.70
2019-01-23T11:21:43.601Z,-0.60
2019-01-23T11:24:17.478Z,-0.60
2019-01-23T11:26:47.296Z,-0.40
2019-01-23T11:29:17.392Z,-0.50
2019-01-23T11:36:51.047Z,-0.40
2019-01-23T11:39:20.743Z,-0.60
2019-01-23T11:44:23.381Z,-0.80
2019-01-23T11:46:57.617Z,-0.60
2019-01-23T11:52:01.198Z,-0.40
2019-01-23T11:54:31.237Z,-0.30
2019-01-23T11:57:04.033Z,-0.40
2019-01-23T11:59:33.738Z,-0.20
2019-01-23T12:02:07.471Z,0.60
2019-01-23T12:04:37.264Z,-0.60
2019-01-23T12:07:10.877Z,-0.80
2019-01-23T12:09:41.047Z,-1.00
2019-01-23T12:12:13.884Z,-1.00
2019-01-23T12:14:44.720Z,-0.80
2019-01-23T12:17:16.357Z,0.20
2019-01-23T12:19:46.076Z,-0.40
2019-01-23T12:24:48.418Z,-0.40
2019-01-23T12:29:52.581Z,-0.50
2019-01-23T12:34:53.007Z,0.80
2019-01-23T12:42:29.586Z,-0.20
2019-01-23T12:50:02.080Z,-0.40
2019-01-23T12:52:36.260Z,-0.40
2019-01-23T12:55:06.846Z,-0.50
2019-01-23T12:57:37.458Z,-0.10
2019-01-23T13:00:10.770Z,-0.50
2019-01-23T13:02:40.523Z,-0.70
2019-01-23T13:05:11.540Z,0.10
2019-01-23T13:07:42.059Z,-0.20
2019-01-23T13:15:15.765Z,-0.20
2019-01-23T13:17:47.443Z,1.00
2019-01-23T13:22:51.488Z,0.00
2019-01-23T13:25:23.396Z,0.20
2019-01-23T13:37:59.473Z,0.20
2019-01-23T13:45:32.413Z,1.10
2019-01-23T13:53:12.009Z,0.00
2019-01-23T13:55:42.054Z,-0.10
2019-01-23T13:58:15.009Z,-0.10
2019-01-23T14:00:44.991Z,-0.10
2019-01-23T14:05:43.613Z,-0.10
2019-01-23T14:08:19.949Z,0.00
2019-01-23T14:13:20.861Z,0.30
2019-01-23T14:15:50.636Z,-1.30
2019-01-23T14:18:22.947Z,-0.40
2019-01-23T14:20:52.712Z,-0.50
2019-01-23T14:25:54.545Z,-0.70
2019-01-23T14:28:28.151Z,0.80
2019-01-23T14:31:00.440Z,-0.70
2019-01-23T14:33:30.205Z,-0.80
2019-01-23T14:35:59.916Z,-0.80
2019-01-23T14:38:32.932Z,0.00
2019-01-23T14:43:36.979Z,-1.20
2019-01-23T14:46:24.141Z,-1.20
2019-01-23T14:48:53.925Z,-1.20
2019-01-23T14:51:24.038Z,-1.30
2019-01-23T14:53:53.924Z,-1.30
2019-01-23T14:56:25.071Z,-3.20
2019-01-23T14:58:55.213Z,-1.40
2019-01-23T15:01:24.989Z,-1.40
2019-01-23T15:03:54.897Z,-2.40
2019-01-23T15:08:54.331Z,-1.60
2019-01-23T15:11:24.079Z,-1.60
2019-01-23T15:13:54.098Z,-1.60
2019-01-23T15:16:23.852Z,-1.60
2019-01-23T15:18:54.865Z,-1.50
2019-01-23T15:21:24.879Z,-2.00
2019-01-23T15:29:02.944Z,-1.40
2019-01-23T15:36:32.594Z,-1.30
2019-01-23T15:41:39.185Z,-1.20
2019-01-23T15:46:39.830Z,-1.10
2019-01-23T15:54:16.167Z,-1.60
2019-01-23T15:56:50.967Z,-0.90
2019-01-23T15:59:24.640Z,-1.00
2019-01-23T16:04:23.676Z,-0.80
2019-01-23T16:06:53.817Z,-0.70
2019-01-23T16:09:23.929Z,-0.90
2019-01-23T16:11:53.644Z,-0.80
2019-01-23T16:19:29.112Z,-0.60
2019-01-23T16:21:59.261Z,-0.50
2019-01-23T16:29:34.848Z,-0.50
2019-01-23T16:32:05.072Z,-0.50
2019-01-23T16:37:06.189Z,-0.50
2019-01-23T16:39:39.974Z,-0.50
2019-01-23T16:42:09.839Z,0.40
2019-01-23T16:44:41.882Z,-0.60
2019-01-23T16:47:12.973Z,-0.70
2019-01-23T16:49:44.703Z,-0.80
2019-01-23T16:54:46.666Z,-0.70
2019-01-23T16:57:16.391Z,-0.80
2019-01-23T16:59:49.301Z,-0.80
2019-01-23T17:07:21.292Z,-0.80
2019-01-23T17:12:26.828Z,-0.90
2019-01-23T17:14:57.857Z,-1.00
2019-01-23T17:20:05.282Z,-1.00
2019-01-23T17:22:35.081Z,-1.00
2019-01-23T17:25:07.871Z,-1.00
2019-01-23T17:32:45.621Z,-1.00
2019-01-23T17:35:14.776Z,-1.00
2019-01-23T17:37:46.082Z,-1.00
2019-01-23T17:47:47.230Z,-1.80
2019-01-23T17:52:49.198Z,-0.90
2019-01-23T17:55:30.649Z,-0.90
2019-01-23T17:58:00.903Z,-0.90
2019-01-23T18:00:34.778Z,-0.90
2019-01-23T18:03:04.969Z,-1.00
2019-01-23T18:05:38.276Z,-1.00
2019-01-23T18:08:08.125Z,-1.00
2019-01-23T18:10:39.499Z,-0.90
2019-01-23T18:15:38.908Z,-0.50
2019-01-23T18:20:38.483Z,-1.00
2019-01-23T18:25:37.779Z,-1.10
2019-01-23T18:33:13.815Z,-1.20
2019-01-23T18:41:47.247Z,-1.30
2019-01-23T18:47:49.482Z,-1.40
2019-01-23T18:50:36.293Z,-1.40
2019-01-23T18:53:06.406Z,-1.40
2019-01-23T18:58:06.155Z,-1.40
2019-01-23T19:00:37.997Z,-1.40
2019-01-23T19:03:08.194Z,-1.40
2019-01-23T19:05:38.477Z,-1.40
2019-01-23T19:08:09.504Z,-1.40
2019-01-23T19:10:40.337Z,-0.20
2019-01-23T19:15:41.602Z,-1.40
2019-01-23T19:18:12.047Z,-0.20
2019-01-23T19:20:41.886Z,-1.40
2019-01-23T19:23:14.650Z,-1.30
2019-01-23T19:25:44.654Z,-0.20
2019-01-23T19:28:16.054Z,-1.30
2019-01-23T19:30:45.809Z,-1.30
2019-01-23T19:35:48.841Z,-1.40
2019-01-23T19:38:21.759Z,-1.30
2019-01-23T19:40:53.818Z,-1.30
2019-01-23T19:45:52.973Z,-1.40
2019-01-23T19:48:26.378Z,-0.40
2019-01-23T19:50:59.260Z,-1.40
2019-01-23T19:53:29.035Z,-0.60
2019-01-23T19:55:59.058Z,-1.40
2019-01-23T19:58:31.259Z,-2.30
2019-01-23T20:06:03.123Z,-1.60
2019-01-23T20:11:06.953Z,-1.60
2019-01-23T20:16:08.774Z,-1.50
2019-01-23T20:18:43.593Z,-1.60
2019-01-23T20:21:13.618Z,-1.70
2019-01-23T20:23:49.786Z,-1.60
2019-01-23T20:26:19.634Z,-1.60
2019-01-23T20:31:19.940Z,-1.50
2019-01-23T20:33:50.697Z,-1.60
2019-01-23T20:36:20.745Z,-1.60
2019-01-23T20:48:58.917Z,-1.70
2019-01-23T20:51:28.957Z,-1.80
2019-01-23T20:54:01.782Z,-2.30
2019-01-23T20:59:04.799Z,-2.10
2019-01-23T21:01:34.610Z,-1.80
2019-01-23T21:09:15.456Z,-1.80
2019-01-23T21:11:46.662Z,-1.90
2019-01-23T21:14:16.464Z,-2.00
2019-01-23T21:16:46.227Z,-1.10
2019-01-23T21:19:19.011Z,-1.90
2019-01-23T21:21:48.856Z,-2.10
2019-01-23T21:24:22.206Z,-2.00
2019-01-23T21:26:52.366Z,-2.10
2019-01-23T21:29:22.133Z,-2.10
2019-01-23T21:31:52.046Z,-1.40
2019-01-23T21:34:24.444Z,-1.60
2019-01-23T21:39:28.160Z,-2.10
2019-01-23T21:41:58.348Z,-2.10
2019-01-23T21:44:29.483Z,-2.10
2019-01-23T21:47:00.361Z,-2.10
2019-01-23T21:49:31.945Z,-2.10
2019-01-23T21:52:01.683Z,-2.20
2019-01-23T21:57:03.735Z,-2.20
2019-01-23T21:59:38.163Z,-2.10
2019-01-23T22:09:42.490Z,-2.20
2019-01-23T22:12:12.531Z,-2.30
2019-01-23T22:14:46.036Z,-1.40
2019-01-23T22:17:15.832Z,-2.20
2019-01-23T22:19:48.371Z,-2.20
2019-01-23T22:22:18.099Z,-2.20
2019-01-23T22:24:51.990Z,-2.20
2019-01-23T22:32:22.449Z,-2.20
2019-01-23T22:34:58.114Z,-2.20
2019-01-23T22:37:28.121Z,-2.20
2019-01-23T22:42:29.326Z,-2.20
2019-01-23T22:45:06.918Z,-2.10
2019-01-23T22:47:37.674Z,-2.20
2019-01-23T22:50:10.789Z,-2.20
2019-01-23T22:52:40.512Z,-2.30
2019-01-23T22:55:10.785Z,-2.30
2019-01-23T22:57:40.809Z,-1.30
2019-01-23T23:02:52.140Z,-2.30
2019-01-23T23:05:21.857Z,-2.30
2019-01-23T23:07:51.574Z,-2.30
2019-01-23T23:10:23.168Z,-1.30
2019-01-23T23:12:52.977Z,-2.30
2019-01-23T23:15:22.808Z,-1.20
2019-01-23T23:17:52.832Z,-2.30
2019-01-23T23:20:22.808Z,-2.30
2019-01-23T23:22:52.517Z,-2.40
2019-01-23T23:25:25.958Z,-2.30
2019-01-23T23:27:55.696Z,-2.30
2019-01-23T23:30:28.676Z,-3.50
2019-01-23T23:35:30.936Z,-2.30
2019-01-23T23:38:00.696Z,-2.10
2019-01-23T23:40:33.828Z,-2.30
2019-01-23T23:45:37.310Z,-2.30
2019-01-23T23:48:07.513Z,-2.40
2019-01-23T23:50:39.994Z,-2.40
2019-01-23T23:53:10.613Z,-2.50
